Time;durP1;ratioP1;P1;durP2;ratioP2;P2;SDS_P1;SDS_P2;PMS_P1;PMS_P2;Temp;Humidity;BMP_temperature;BMP_pressure;BME280_temperature;BME280_humidity;BME280_pressure;Samples;Min_cycle;Max_cycle;Signal;HPM_P1;HPM_P2
2022/07/22 00:00:45;;;;;;;10.30;2.60;;;;;;;23.49;53.51;100396.77;109699;1270;22506;-66
2022/07/22 00:03:17;;;;;;;8.20;2.90;;;;;;;23.46;53.68;100403.30;109684;1271;22507;-67
2022/07/22 00:05:48;;;;;;;8.10;2.40;;;;;;;23.43;53.72;100399.54;109767;1271;22850;-66
2022/07/22 00:08:20;;;;;;;10.10;2.50;;;;;;;23.42;53.74;100401.96;109762;1270;22497;-66
2022/07/22 00:10:51;;;;;;;10.30;3.10;;;;;;;23.37;53.89;100398.61;109721;1271;22396;-66
2022/07/22 00:13:23;;;;;;;8.50;3.00;;;;;;;23.32;54.04;100395.11;109742;1270;22411;-68
2022/07/22 00:15:54;;;;;;;7.40;2.70;;;;;;;23.28;54.02;100402.75;109777;1271;22459;-66
2022/07/22 00:18:28;;;;;;;10.50;2.90;;;;;;;23.27;54.19;100404.92;109723;1271;23117;-66
2022/07/22 00:21:00;;;;;;;8.20;2.50;;;;;;;23.27;54.19;100401.88;109722;1271;22466;-66
2022/07/22 00:23:33;;;;;;;8.10;2.40;;;;;;;23.26;54.29;100402.67;109740;1271;22542;-66
2022/07/22 00:26:04;;;;;;;7.90;2.60;;;;;;;23.25;54.30;100404.27;109748;1270;22301;-66
2022/07/22 00:28:36;;;;;;;7.90;2.90;;;;;;;23.23;54.39;100407.80;109764;1270;22490;-66
2022/07/22 00:31:08;;;;;;;9.00;3.30;;;;;;;23.20;54.49;100407.94;109736;1271;22392;-66
2022/07/22 00:33:39;;;;;;;7.80;3.00;;;;;;;23.18;54.56;100404.92;109736;1270;22199;-66
2022/07/22 00:36:11;;;;;;;8.40;3.00;;;;;;;23.17;54.76;100404.50;109672;1271;22428;-66
2022/07/22 00:38:42;;;;;;;9.60;3.00;;;;;;;23.16;54.70;100409.21;109774;1270;22457;-66
2022/07/22 00:41:14;;;;;;;8.80;3.40;;;;;;;23.14;54.80;100408.84;109719;1271;22424;-66
2022/07/22 00:44:01;;;;;;;9.60;3.10;;;;;;;23.12;54.96;100408.54;109726;1271;22440;-66
2022/07/22 00:46:35;;;;;;;8.90;3.40;;;;;;;23.10;55.08;100404.05;109755;1271;22397;-66
2022/07/22 00:49:08;;;;;;;12.80;3.30;;;;;;;23.07;55.12;100397.35;109738;1270;22500;-66
2022/07/22 00:51:40;;;;;;;11.60;3.30;;;;;;;23.07;54.90;100396.94;109727;1271;22517;-66
2022/07/22 00:54:11;;;;;;;9.10;2.90;;;;;;;23.06;54.91;100391.02;109656;1272;22526;-66
2022/07/22 00:56:43;;;;;;;8.10;2.90;;;;;;;23.05;55.07;100382.39;109787;1271;22397;-66
2022/07/22 00:59:15;;;;;;;9.30;2.70;;;;;;;23.03;55.28;100385.87;109753;1270;22421;-66
2022/07/22 01:01:47;;;;;;;8.60;3.20;;;;;;;22.96;55.36;100390.30;109739;1270;22470;-66
2022/07/22 01:04:18;;;;;;;7.30;2.80;;;;;;;22.92;55.34;100391.17;109761;1271;22458;-66
2022/07/22 01:06:50;;;;;;;7.60;2.70;;;;;;;22.89;55.59;100394.20;109690;1271;22529;-65
2022/07/22 01:09:21;;;;;;;9.00;3.20;;;;;;;22.85;55.46;100395.16;109743;1271;22493;-65
2022/07/22 01:11:52;;;;;;;8.90;3.00;;;;;;;22.82;55.50;100404.27;109744;1271;22437;-66
2022/07/22 01:14:24;;;;;;;10.50;3.60;;;;;;;22.75;55.80;100412.98;109728;1271;22509;-66
2022/07/22 01:16:55;;;;;;;9.30;3.00;;;;;;;22.68;56.19;100424.35;109749;1271;22519;-65
2022/07/22 01:19:26;;;;;;;10.10;3.30;;;;;;;22.64;56.28;100426.73;109748;1270;22442;-66
2022/07/22 01:21:58;;;;;;;8.30;2.90;;;;;;;22.61;56.25;100430.55;109745;1270;23037;-65
2022/07/22 01:24:29;;;;;;;12.20;3.00;;;;;;;22.58;56.44;100432.00;109765;1271;23041;-66
2022/07/22 01:27:01;;;;;;;9.40;2.80;;;;;;;22.54;56.55;100439.74;109727;1271;22374;-65
2022/07/22 01:29:32;;;;;;;7.90;3.00;;;;;;;22.50;56.68;100435.73;109747;1271;22520;-65
2022/07/22 01:32:03;;;;;;;7.20;3.10;;;;;;;22.48;56.57;100434.58;109739;1271;22440;-65
2022/07/22 01:34:37;;;;;;;12.00;3.40;;;;;;;22.49;56.44;100431.39;109737;1271;22432;-65
2022/07/22 01:37:08;;;;;;;9.60;3.00;;;;;;;22.51;56.44;100424.85;109717;1270;22427;-65
2022/07/22 01:39:40;;;;;;;8.40;2.70;;;;;;;22.51;56.51;100426.04;109681;1273;22436;-65
2022/07/22 01:42:11;;;;;;;12.50;3.90;;;;;;;22.49;56.71;100425.86;109701;1270;22481;-65
2022/07/22 01:44:42;;;;;;;10.40;4.00;;;;;;;22.44;56.89;100430.00;109765;1270;22406;-65
2022/07/22 01:47:14;;;;;;;11.70;3.40;;;;;;;22.38;57.13;100427.66;109732;1271;22235;-65
2022/07/22 01:49:45;;;;;;;8.40;3.10;;;;;;;22.32;57.31;100434.75;109763;1270;22344;-65
2022/07/22 01:52:16;;;;;;;12.80;3.70;;;;;;;22.27;57.62;100440.20;109753;1271;22607;-65
2022/07/22 01:54:48;;;;;;;14.50;3.90;;;;;;;22.22;57.64;100438.79;109695;1271;22433;-65
2022/07/22 01:57:20;;;;;;;9.40;3.30;;;;;;;22.20;57.84;100433.63;109691;1271;22453;-65
2022/07/22 01:59:51;;;;;;;11.80;3.90;;;;;;;22.16;57.78;100425.92;109768;1271;22375;-65
2022/07/22 02:02:24;;;;;;;9.90;4.20;;;;;;;22.11;58.12;100430.73;109710;1271;22499;-65
2022/07/22 02:04:55;;;;;;;9.20;3.70;;;;;;;22.08;58.04;100432.52;109752;1270;22480;-66
2022/07/22 02:07:26;;;;;;;8.40;3.00;;;;;;;22.07;58.03;100424.74;109721;1271;22535;-65
2022/07/22 02:09:58;;;;;;;11.00;3.80;;;;;;;22.07;57.98;100421.44;109706;1271;22440;-65
2022/07/22 02:12:29;;;;;;;9.10;4.00;;;;;;;22.04;57.96;100425.59;109741;1270;22474;-65
2022/07/22 02:15:00;;;;;;;12.70;3.60;;;;;;;22.03;58.01;100436.94;109685;1272;22364;-65
2022/07/22 02:17:33;;;;;;;9.60;4.00;;;;;;;21.98;58.12;100446.73;109725;1271;22484;-66
2022/07/22 02:20:05;;;;;;;11.30;4.30;;;;;;;21.94;58.33;100455.56;109692;1271;22403;-65
2022/07/22 02:22:37;;;;;;;15.30;4.20;;;;;;;21.87;58.70;100464.27;109713;1271;22491;-65
2022/07/22 02:25:10;;;;;;;10.60;3.70;;;;;;;21.80;58.98;100470.13;109758;1271;22456;-65
2022/07/22 02:27:42;;;;;;;7.60;3.70;;;;;;;21.73;59.11;100477.39;109717;1271;22425;-65
2022/07/22 02:30:14;;;;;;;9.00;3.80;;;;;;;21.67;59.33;100482.59;109718;1270;22420;-64
2022/07/22 02:32:45;;;;;;;10.70;3.90;;;;;;;21.65;59.49;100486.54;109722;1271;22429;-64
2022/07/22 02:35:17;;;;;;;10.50;4.20;;;;;;;21.64;59.41;100491.23;109707;1271;23189;-64
2022/07/22 02:37:49;;;;;;;10.40;4.40;;;;;;;21.66;59.56;100496.59;109683;1271;22392;-64
2022/07/22 02:40:20;;;;;;;11.90;4.10;;;;;;;21.67;59.69;100503.54;109735;1268;22492;-65
2022/07/22 02:42:52;;;;;;;12.40;4.30;;;;;;;21.65;59.95;100514.27;109761;1270;23135;-64
2022/07/22 02:45:24;;;;;;;11.70;4.10;;;;;;;21.63;60.02;100523.46;109769;1270;22423;-64
2022/07/22 02:47:56;;;;;;;11.00;4.20;;;;;;;21.63;60.28;100534.66;109776;1270;23197;-64
2022/07/22 02:50:28;;;;;;;13.10;3.80;;;;;;;21.59;60.41;100548.59;109780;1270;23388;-64
2022/07/22 02:53:00;;;;;;;10.90;4.00;;;;;;;21.57;60.75;100577.09;109689;1270;23064;-64
2022/07/22 02:55:31;;;;;;;13.50;4.60;;;;;;;21.53;60.99;100593.66;109736;1261;22528;-51
2022/07/22 02:58:08;;;;;;;11.60;4.70;;;;;;;21.48;61.05;100593.34;109621;1273;23342;-55
2022/07/22 03:00:40;;;;;;;13.20;4.80;;;;;;;21.48;60.97;100576.55;109605;1273;22414;-51
2022/07/22 03:03:11;;;;;;;12.70;4.70;;;;;;;21.49;61.09;100569.47;109611;1273;23204;-52
2022/07/22 03:05:42;;;;;;;11.90;4.50;;;;;;;21.49;61.32;100580.33;109600;1273;22509;-54
2022/07/22 03:08:13;;;;;;;15.30;5.50;;;;;;;21.49;61.45;100585.36;109588;1272;22532;-52
2022/07/22 03:10:44;;;;;;;17.40;5.20;;;;;;;21.50;61.42;100590.05;109554;1273;22439;-53
2022/07/22 03:13:16;;;;;;;13.30;4.30;;;;;;;21.50;61.44;100596.50;109583;1273;23301;-53
2022/07/22 03:15:47;;;;;;;12.00;4.30;;;;;;;21.52;61.65;100608.96;109579;1273;22421;-52
2022/07/22 03:18:18;;;;;;;14.70;5.60;;;;;;;21.52;61.64;100613.09;109622;1273;24035;-54
2022/07/22 03:20:49;;;;;;;13.80;4.30;;;;;;;21.57;61.90;100599.06;109637;1273;22438;-54
2022/07/22 03:23:20;;;;;;;15.30;5.30;;;;;;;21.59;62.52;100586.86;109613;1273;22574;-56
2022/07/22 03:25:52;;;;;;;14.50;6.00;;;;;;;21.61;63.31;100573.77;109613;1273;22390;-53
2022/07/22 03:28:24;;;;;;;16.50;5.40;;;;;;;21.62;63.90;100552.01;109627;1273;23620;-53
2022/07/22 03:30:57;;;;;;;13.30;5.00;;;;;;;21.63;64.57;100540.61;109620;1272;22568;-53
2022/07/22 03:33:28;;;;;;;14.70;5.80;;;;;;;21.64;64.71;100525.02;109615;1273;22429;-55
2022/07/22 03:36:02;;;;;;;12.20;5.10;;;;;;;21.65;65.53;100502.58;109601;1273;22245;-53
2022/07/22 03:38:34;;;;;;;14.00;5.60;;;;;;;21.64;65.52;100481.91;109617;1273;22435;-56
2022/07/22 03:41:06;;;;;;;11.80;4.70;;;;;;;21.60;65.75;100466.86;109616;1273;22216;-54
2022/07/22 03:43:39;;;;;;;15.80;5.40;;;;;;;21.59;65.84;100463.11;109567;1273;22429;-57
2022/07/22 03:46:10;;;;;;;16.50;6.40;;;;;;;21.57;65.97;100462.05;109592;1273;22261;-54
2022/07/22 03:48:41;;;;;;;16.90;6.50;;;;;;;21.57;66.12;100459.90;109630;1273;22553;-56
2022/07/22 03:51:13;;;;;;;13.70;5.70;;;;;;;21.49;66.18;100450.67;109622;1273;22391;-52
2022/07/22 03:53:44;;;;;;;15.60;5.30;;;;;;;21.46;66.35;100450.79;109603;1273;22411;-54
2022/07/22 03:56:15;;;;;;;15.90;6.00;;;;;;;21.41;66.54;100437.21;109606;1273;22484;-54
2022/07/22 03:58:46;;;;;;;15.90;5.60;;;;;;;21.39;66.55;100431.91;109591;1273;22260;-53
2022/07/22 04:01:19;;;;;;;14.70;5.70;;;;;;;21.31;66.72;100412.91;109648;1273;22478;-53
2022/07/22 04:03:50;;;;;;;19.60;6.30;;;;;;;21.26;66.75;100412.71;109641;1273;23202;-54
2022/07/22 04:06:22;;;;;;;14.50;6.40;;;;;;;21.24;66.97;100416.06;109626;1273;22538;-54
2022/07/22 04:08:54;;;;;;;14.00;5.50;;;;;;;21.23;67.18;100415.93;109616;1274;23511;-55
2022/07/22 04:11:26;;;;;;;18.60;7.10;;;;;;;21.23;67.34;100410.80;109634;1272;22443;-54
2022/07/22 04:13:57;;;;;;;13.50;6.50;;;;;;;21.20;67.54;100407.52;109636;1272;22602;-53
2022/07/22 04:16:28;;;;;;;16.20;6.50;;;;;;;21.21;67.77;100403.21;109619;1272;22624;-54
2022/07/22 04:18:59;;;;;;;15.00;6.20;;;;;;;21.21;68.15;100400.70;109609;1273;23243;-55
2022/07/22 04:21:30;;;;;;;13.60;6.30;;;;;;;21.22;68.23;100399.04;109617;1272;22433;-51
2022/07/22 04:24:02;;;;;;;19.40;7.00;;;;;;;21.25;68.27;100394.40;109612;1273;22473;-53
2022/07/22 04:26:33;;;;;;;16.50;6.30;;;;;;;21.28;68.49;100397.76;109568;1273;22470;-54
2022/07/22 04:29:07;;;;;;;16.70;6.80;;;;;;;21.29;68.45;100403.24;109657;1273;22476;-52
2022/07/22 04:31:39;;;;;;;14.70;6.80;;;;;;;21.30;68.68;100406.73;109619;1273;22566;-55
2022/07/22 04:34:10;;;;;;;21.70;7.50;;;;;;;21.27;69.03;100413.79;109616;1273;23164;-55
2022/07/22 04:36:41;;;;;;;16.20;7.00;;;;;;;21.23;69.53;100415.16;109608;1273;22475;-53
2022/07/22 04:39:13;;;;;;;14.50;7.20;;;;;;;21.14;69.64;100413.24;109598;1273;23190;-55
2022/07/22 04:41:44;;;;;;;15.60;6.50;;;;;;;21.12;69.89;100417.98;109622;1273;22480;-55
2022/07/22 04:44:16;;;;;;;15.50;7.40;;;;;;;21.06;70.02;100407.16;109589;1273;22448;-51
2022/07/22 04:46:47;;;;;;;15.90;6.50;;;;;;;21.04;70.42;100404.64;109599;1273;22377;-52
2022/07/22 04:49:18;;;;;;;15.50;7.10;;;;;;;21.02;70.62;100410.23;109595;1273;22481;-51
2022/07/22 04:51:49;;;;;;;17.60;7.30;;;;;;;21.02;70.79;100420.50;109604;1272;22593;-51
2022/07/22 04:54:21;;;;;;;16.90;8.00;;;;;;;21.01;71.22;100421.48;109643;1273;23133;-54
2022/07/22 04:56:54;;;;;;;17.30;7.00;;;;;;;21.02;71.30;100426.13;109571;1274;23058;-54
2022/07/22 04:59:25;;;;;;;14.60;7.10;;;;;;;21.06;71.42;100427.66;109578;1273;23209;-50
2022/07/22 05:01:56;;;;;;;16.00;7.40;;;;;;;21.08;70.99;100421.69;109532;1274;22462;-54
2022/07/22 05:04:28;;;;;;;18.30;7.40;;;;;;;21.13;71.30;100426.37;109540;1274;23194;-56
2022/07/22 05:07:00;;;;;;;18.10;8.20;;;;;;;21.17;71.22;100429.63;109548;1273;22950;-52
2022/07/22 05:09:31;;;;;;;15.70;7.60;;;;;;;21.18;71.01;100433.48;109601;1273;22538;-52
2022/07/22 05:12:03;;;;;;;19.60;8.10;;;;;;;21.22;70.99;100434.44;109593;1273;22476;-54
2022/07/22 05:14:35;;;;;;;16.10;8.50;;;;;;;21.26;71.08;100442.20;109537;1273;22600;-54
2022/07/22 05:17:09;;;;;;;20.00;8.70;;;;;;;21.27;70.97;100435.63;109516;1274;22524;-56
2022/07/22 05:19:41;;;;;;;17.10;8.10;;;;;;;21.29;70.77;100427.21;109627;1274;22425;-54
2022/07/22 05:22:13;;;;;;;18.80;8.50;;;;;;;21.34;71.09;100427.46;109528;1274;22563;-55
2022/07/22 05:24:44;;;;;;;15.70;8.60;;;;;;;21.38;70.91;100441.27;109605;1274;22413;-53
2022/07/22 05:27:15;;;;;;;15.60;7.00;;;;;;;21.46;70.97;100447.95;109575;1273;22463;-54
2022/07/22 05:29:47;;;;;;;17.20;7.30;;;;;;;21.50;71.07;100445.54;109615;1273;22467;-53
2022/07/22 05:32:18;;;;;;;16.90;7.90;;;;;;;21.58;71.25;100458.58;109605;1273;22452;-53
2022/07/22 05:34:49;;;;;;;18.70;8.40;;;;;;;21.62;70.93;100457.61;109629;1273;22458;-54
2022/07/22 05:37:20;;;;;;;16.70;7.90;;;;;;;21.68;70.79;100464.45;109588;1273;22385;-54
2022/07/22 05:39:52;;;;;;;15.60;6.50;;;;;;;21.75;70.68;100466.88;109608;1273;22446;-54
2022/07/22 05:42:23;;;;;;;17.90;7.20;;;;;;;21.85;70.90;100470.39;109583;1273;22950;-56
2022/07/22 05:44:55;;;;;;;15.50;7.70;;;;;;;21.93;70.95;100469.80;109594;1274;22418;-53
2022/07/22 05:47:26;;;;;;;15.60;7.40;;;;;;;22.04;70.91;100475.31;109586;1273;22573;-54
2022/07/22 05:50:15;;;;;;;17.30;6.50;;;;;;;22.15;71.14;100470.55;109617;1274;22380;-52
2022/07/22 05:52:53;;;;;;;14.70;6.90;;;;;;;22.28;70.83;100479.44;109521;1274;22505;-54
2022/07/22 05:55:24;;;;;;;14.50;6.80;;;;;;;22.36;70.16;100476.44;109581;1273;22439;-54
2022/07/22 05:58:00;;;;;;;14.50;6.00;;;;;;;22.44;69.50;100477.27;109587;1274;23203;-54
2022/07/22 06:00:33;;;;;;;15.20;7.30;;;;;;;22.50;69.24;100482.84;109615;1274;23173;-54
2022/07/22 06:03:04;;;;;;;15.90;5.70;;;;;;;22.56;68.92;100485.39;109591;1274;22466;-54
2022/07/22 06:08:38;;;;;;;13.60;6.00;;;;;;;22.67;68.28;100481.41;109154;1278;22510;-55
2022/07/22 06:11:09;;;;;;;14.80;6.00;;;;;;;22.74;67.96;100478.53;109167;1279;23456;-56
2022/07/22 06:13:41;;;;;;;13.10;6.40;;;;;;;22.81;67.93;100480.11;109217;1278;22595;-53
2022/07/22 06:16:12;;;;;;;14.80;5.70;;;;;;;22.88;67.93;100485.16;109154;1278;22457;-52
2022/07/22 06:18:44;;;;;;;14.90;5.80;;;;;;;22.95;67.58;100483.38;109219;1279;22281;-55
2022/07/22 06:21:15;;;;;;;15.20;7.20;;;;;;;22.99;67.29;100488.80;109215;1279;22511;-52
2022/07/22 06:23:47;;;;;;;12.50;5.50;;;;;;;23.06;67.22;100488.07;109181;1279;22481;-54
2022/07/22 06:26:18;;;;;;;13.50;6.40;;;;;;;23.18;67.22;100481.66;109188;1279;22441;-55
2022/07/22 06:28:49;;;;;;;13.10;5.70;;;;;;;23.31;66.70;100481.27;109103;1279;22473;-53
2022/07/22 06:31:22;;;;;;;14.40;6.10;;;;;;;23.42;66.56;100474.71;109134;1279;22442;-55
2022/07/22 06:33:53;;;;;;;15.40;7.40;;;;;;;23.53;65.98;100474.61;109093;1279;22671;-56
2022/07/22 06:36:24;;;;;;;15.80;6.50;;;;;;;23.60;65.72;100478.20;109201;1279;22460;-56
2022/07/22 06:38:56;;;;;;;14.10;6.20;;;;;;;23.73;65.51;100482.55;109184;1279;22490;-54
2022/07/22 06:41:28;;;;;;;14.40;6.30;;;;;;;23.87;65.13;100481.63;109215;1279;22648;-53
2022/07/22 06:43:59;;;;;;;12.30;6.10;;;;;;;24.02;64.95;100474.80;109236;1279;22430;-53
2022/07/22 06:46:30;;;;;;;14.40;6.90;;;;;;;24.11;64.40;100474.41;109176;1279;22473;-55
2022/07/22 06:49:02;;;;;;;13.10;6.10;;;;;;;24.19;64.16;100473.73;109163;1279;22423;-53
2022/07/22 06:51:33;;;;;;;15.60;6.40;;;;;;;24.29;63.75;100469.34;109139;1279;22469;-53
2022/07/22 06:54:04;;;;;;;17.50;7.40;;;;;;;24.37;63.31;100472.68;109184;1279;22441;-52
2022/07/22 06:56:37;;;;;;;14.80;7.00;;;;;;;24.45;63.50;100475.77;109131;1278;22532;-52
2022/07/22 06:59:08;;;;;;;15.50;6.20;;;;;;;24.58;63.43;100477.40;109136;1279;22428;-57
2022/07/22 07:01:40;;;;;;;14.80;5.90;;;;;;;24.71;63.00;100479.33;109150;1279;23346;-53
2022/07/22 07:04:11;;;;;;;13.30;6.80;;;;;;;24.85;62.41;100479.28;109120;1279;22679;-54
2022/07/22 07:06:42;;;;;;;16.40;6.90;;;;;;;24.97;62.36;100475.09;109148;1279;23125;-52
2022/07/22 07:09:13;;;;;;;14.50;6.80;;;;;;;25.04;62.06;100473.98;109134;1279;22638;-56
2022/07/22 07:11:45;;;;;;;13.70;6.00;;;;;;;25.07;61.51;100475.54;109014;1279;23496;-56
2022/07/22 07:14:16;;;;;;;12.70;6.20;;;;;;;25.07;61.31;100474.59;109549;1274;22448;-54
2022/07/22 07:16:47;;;;;;;14.40;6.10;;;;;;;25.11;61.12;100475.57;109590;1274;23283;-54
2022/07/22 07:19:19;;;;;;;13.10;5.60;;;;;;;25.14;60.81;100474.41;109431;1274;22409;-56
2022/07/22 07:21:51;;;;;;;12.20;6.00;;;;;;;25.14;60.81;100477.08;109580;1274;22478;-55
2022/07/22 07:24:22;;;;;;;13.90;6.70;;;;;;;25.19;60.72;100478.55;109568;1274;23139;-54
2022/07/22 07:26:54;;;;;;;12.10;6.80;;;;;;;25.25;60.45;100478.52;109586;1274;22550;-55
2022/07/22 07:29:25;;;;;;;10.90;5.40;;;;;;;25.33;60.40;100478.58;109544;1274;23592;-56
2022/07/22 07:31:57;;;;;;;15.30;6.30;;;;;;;25.40;59.57;100482.48;109606;1274;22449;-53
2022/07/22 07:34:28;;;;;;;12.10;6.00;;;;;;;25.36;58.93;100479.86;109593;1274;23181;-53
2022/07/22 07:36:59;;;;;;;15.80;6.90;;;;;;;25.38;58.91;100480.96;109580;1274;22438;-56
2022/07/22 07:39:31;;;;;;;17.90;6.00;;;;;;;25.44;59.04;100481.48;109577;1274;23180;-54
2022/07/22 07:42:02;;;;;;;11.30;5.50;;;;;;;25.51;58.56;100482.36;109598;1274;22465;-53
2022/07/22 07:44:33;;;;;;;12.30;5.80;;;;;;;25.52;57.79;100479.19;109584;1274;22541;-57
2022/07/22 07:47:05;;;;;;;14.80;6.60;;;;;;;25.53;57.81;100482.50;109583;1274;23112;-52
2022/07/22 07:49:36;;;;;;;12.60;5.60;;;;;;;25.56;57.89;100474.70;109616;1274;23347;-52
2022/07/22 07:52:08;;;;;;;15.60;6.10;;;;;;;25.66;57.77;100471.27;109586;1274;22460;-55
2022/07/22 07:54:39;;;;;;;12.90;6.00;;;;;;;25.71;57.28;100471.98;109591;1274;22467;-56
2022/07/22 07:57:11;;;;;;;14.90;6.10;;;;;;;25.75;57.63;100472.09;109635;1273;22494;-52
2022/07/22 07:59:43;;;;;;;12.30;5.90;;;;;;;25.85;57.20;100469.63;109603;1273;22475;-55
2022/07/22 08:02:14;;;;;;;15.20;5.70;;;;;;;25.98;57.41;100479.70;109606;1273;22480;-54
2022/07/22 08:04:45;;;;;;;17.50;7.20;;;;;;;26.13;57.43;100475.86;109651;1273;22409;-52
2022/07/22 08:07:16;;;;;;;18.60;8.00;;;;;;;26.25;56.81;100476.98;109622;1273;23106;-54
2022/07/22 08:09:48;;;;;;;10.90;5.90;;;;;;;26.29;56.24;100477.27;109643;1273;22433;-52
2022/07/22 08:12:19;;;;;;;13.10;6.70;;;;;;;26.35;56.72;100480.55;109646;1273;22496;-52
2022/07/22 08:14:51;;;;;;;14.10;5.90;;;;;;;26.46;56.56;100478.97;109629;1273;22455;-55
2022/07/22 08:17:22;;;;;;;12.90;6.00;;;;;;;26.61;56.51;100474.73;109644;1273;22518;-54
2022/07/22 08:19:53;;;;;;;15.30;6.70;;;;;;;26.72;55.89;100472.32;109679;1273;22941;-52
2022/07/22 08:22:25;;;;;;;14.40;7.20;;;;;;;26.80;55.69;100472.52;109615;1273;22459;-55
2022/07/22 08:24:56;;;;;;;14.00;6.80;;;;;;;26.81;55.26;100476.39;109647;1272;22995;-52
2022/07/22 08:27:28;;;;;;;14.80;7.10;;;;;;;26.80;55.13;100475.41;109633;1273;23090;-56
2022/07/22 08:29:59;;;;;;;15.20;7.40;;;;;;;26.77;54.85;100477.05;109608;1273;22449;-55
2022/07/22 08:32:30;;;;;;;18.30;7.50;;;;;;;26.74;54.79;100475.23;109661;1273;22424;-54
2022/07/22 08:35:02;;;;;;;14.50;7.00;;;;;;;26.73;54.86;100472.81;109649;1272;22421;-55
2022/07/22 08:37:33;;;;;;;13.60;5.70;;;;;;;26.81;54.84;100477.77;109662;1273;22515;-57
2022/07/22 08:40:06;;;;;;;13.40;5.80;;;;;;;26.94;54.98;100480.05;109600;1273;22426;-56
2022/07/22 08:42:40;;;;;;;15.30;6.40;;;;;;;27.06;54.75;100480.23;109622;1273;22498;-56
2022/07/22 08:45:12;;;;;;;12.50;6.00;;;;;;;27.10;54.51;100483.48;109651;1273;23481;-57
2022/07/22 08:47:51;;;;;;;14.80;6.00;;;;;;;27.20;54.48;100480.55;109642;1273;23370;-56
2022/07/22 08:50:24;;;;;;;15.40;7.00;;;;;;;27.24;53.84;100479.92;109646;1273;23207;-54
2022/07/22 08:52:55;;;;;;;18.60;7.10;;;;;;;27.23;53.44;100484.06;109642;1273;23249;-57
2022/07/22 08:55:27;;;;;;;12.70;6.60;;;;;;;27.21;53.61;100485.67;109654;1273;22459;-56
2022/07/22 08:57:58;;;;;;;16.20;7.10;;;;;;;27.24;53.44;100478.88;109621;1273;22524;-59
2022/07/22 09:00:29;;;;;;;13.80;7.00;;;;;;;27.28;53.18;100492.84;109622;1273;22606;-54
2022/07/22 09:03:01;;;;;;;13.90;8.30;;;;;;;27.24;52.95;100486.15;109638;1273;22531;-56
2022/07/22 09:05:37;;;;;;;12.30;6.40;;;;;;;27.22;53.14;100479.56;109656;1273;22499;-56
2022/07/22 09:08:08;;;;;;;13.50;6.00;;;;;;;27.29;53.21;100474.86;109629;1273;23850;-56
2022/07/22 09:10:39;;;;;;;13.80;7.10;;;;;;;27.41;53.46;100469.89;109671;1273;22470;-57
2022/07/22 09:13:12;;;;;;;13.50;6.10;;;;;;;27.52;52.91;100468.17;109610;1273;23259;-56
2022/07/22 09:15:49;;;;;;;12.70;5.20;;;;;;;27.66;52.92;100464.63;109653;1273;22499;-56
2022/07/22 09:18:22;;;;;;;17.00;6.70;;;;;;;27.84;52.82;100463.73;109653;1273;22389;-54
2022/07/22 09:21:00;;;;;;;14.00;6.30;;;;;;;27.99;52.76;100459.27;109659;1273;22442;-58
2022/07/22 09:23:42;;;;;;;14.40;6.50;;;;;;;28.09;52.13;100462.71;109648;1273;22453;-55
2022/07/22 09:26:32;;;;;;;15.30;7.00;;;;;;;28.16;51.76;100453.27;109663;1273;22435;-58
2022/07/22 09:29:05;;;;;;;13.00;6.20;;;;;;;28.17;51.29;100460.95;109616;1273;22508;-57
2022/07/22 09:31:38;;;;;;;13.90;5.50;;;;;;;28.18;51.02;100462.47;109627;1273;22546;-56
2022/07/22 09:34:09;;;;;;;13.10;6.10;;;;;;;28.20;50.15;100462.73;109651;1273;22423;-54
2022/07/22 09:36:58;;;;;;;12.70;5.70;;;;;;;28.21;50.13;100459.42;109633;1273;22449;-56
2022/07/22 09:39:31;;;;;;;11.10;4.80;;;;;;;28.29;49.59;100460.18;109640;1273;23164;-56
2022/07/22 09:42:05;;;;;;;12.50;4.70;;;;;;;28.36;48.95;100459.48;109595;1273;22567;-56
2022/07/22 09:44:37;;;;;;;13.70;5.20;;;;;;;28.41;48.44;100459.27;109663;1273;22431;-57
2022/07/22 09:47:27;;;;;;;11.50;5.60;;;;;;;28.36;47.97;100462.63;109602;1273;22502;-54
2022/07/22 09:49:58;;;;;;;10.50;4.20;;;;;;;28.39;47.61;100456.95;109665;1273;23182;-57
2022/07/22 09:52:31;;;;;;;9.90;4.00;;;;;;;28.44;47.14;100457.06;109620;1273;23236;-53
2022/07/22 09:55:03;;;;;;;10.60;5.50;;;;;;;28.40;46.52;100458.35;109651;1274;22529;-56
2022/07/22 09:57:35;;;;;;;13.10;5.10;;;;;;;28.33;46.67;100457.47;109648;1273;22454;-54
2022/07/22 10:00:09;;;;;;;12.30;5.20;;;;;;;28.33;46.91;100455.66;109651;1273;22427;-53
2022/07/22 10:02:57;;;;;;;12.10;4.70;;;;;;;28.36;47.02;100452.29;109657;1273;22274;-56
2022/07/22 10:05:31;;;;;;;12.00;4.70;;;;;;;28.53;46.81;100447.83;109666;1273;22514;-57
2022/07/22 10:08:05;;;;;;;12.30;4.70;;;;;;;28.74;46.28;100445.77;109684;1273;22408;-56
2022/07/22 10:10:38;;;;;;;13.00;4.70;;;;;;;28.90;45.83;100444.96;109641;1274;23147;-53
2022/07/22 10:13:10;;;;;;;10.70;4.20;;;;;;;28.99;45.22;100437.92;109650;1273;23104;-56
2022/07/22 10:15:42;;;;;;;8.40;3.80;;;;;;;29.04;44.34;100441.16;109601;1273;22332;-56
2022/07/22 10:18:18;;;;;;;10.80;5.00;;;;;;;28.98;44.16;100442.31;109627;1274;22460;-56
2022/07/22 10:21:01;;;;;;;13.90;4.10;;;;;;;29.02;44.22;100440.27;109639;1273;22482;-56
2022/07/22 10:23:32;;;;;;;9.30;3.70;;;;;;;29.08;44.04;100441.33;109571;1274;22527;-55
2022/07/22 10:26:05;;;;;;;9.00;4.00;;;;;;;29.14;43.65;100438.45;109658;1273;22428;-55
2022/07/22 10:28:39;;;;;;;9.30;3.90;;;;;;;29.16;43.27;100436.40;109684;1273;22438;-54
2022/07/22 10:31:24;;;;;;;10.20;4.40;;;;;;;29.24;43.04;100432.94;109652;1273;23255;-55
2022/07/22 10:33:58;;;;;;;7.30;3.30;;;;;;;29.26;42.76;100422.46;109609;1274;22436;-55
2022/07/22 10:36:38;;;;;;;10.90;3.90;;;;;;;29.34;42.99;100422.34;109309;1274;446572;-54
2022/07/22 10:39:11;;;;;;;8.90;3.20;;;;;;;29.47;42.47;100420.02;109663;1273;22463;-57
2022/07/22 10:41:44;;;;;;;14.20;4.60;;;;;;;29.55;42.38;100419.15;109643;1273;23166;-57
2022/07/22 10:44:36;;;;;;;10.80;4.10;;;;;;;29.66;41.94;100421.31;109640;1273;22508;-56
2022/07/22 10:47:07;;;;;;;9.60;3.00;;;;;;;29.70;41.61;100418.75;109601;1274;22413;-57
2022/07/22 10:49:39;;;;;;;9.20;4.00;;;;;;;29.68;41.42;100417.89;109635;1273;22440;-57
2022/07/22 10:52:20;;;;;;;13.90;3.60;;;;;;;29.67;40.63;100422.40;109609;1274;22379;-56
2022/07/22 10:55:18;;;;;;;7.60;3.30;;;;;;;29.58;40.44;100418.81;109663;1273;23330;-53
2022/07/22 10:57:50;;;;;;;7.50;3.00;;;;;;;29.53;40.80;100418.41;109611;1274;22437;-55
2022/07/22 11:00:22;;;;;;;9.00;3.40;;;;;;;29.57;40.78;100409.38;109649;1273;22423;-56
2022/07/22 11:02:53;;;;;;;8.40;3.30;;;;;;;29.67;40.32;100413.77;109631;1274;22434;-56
2022/07/22 11:05:31;;;;;;;9.50;3.10;;;;;;;29.73;39.79;100412.27;109668;1273;22498;-54
2022/07/22 11:08:09;;;;;;;7.90;2.60;;;;;;;29.74;39.61;100409.70;109654;1274;22520;-56
2022/07/22 11:10:50;;;;;;;5.80;3.00;;;;;;;29.82;39.03;100408.73;109659;1273;23171;-56
2022/07/22 11:13:34;;;;;;;7.50;2.60;;;;;;;29.95;38.81;100407.77;109649;1273;22471;-57
2022/07/22 11:16:20;;;;;;;8.10;3.00;;;;;;;30.03;38.69;100404.59;109660;1273;22424;-55
2022/07/22 11:18:58;;;;;;;7.30;2.30;;;;;;;30.10;38.39;100399.11;109673;1273;22201;-55
2022/07/22 11:21:31;;;;;;;7.40;2.40;;;;;;;30.02;38.08;100393.44;109655;1273;22463;-56
2022/07/22 11:24:07;;;;;;;8.80;2.50;;;;;;;30.06;38.01;100394.45;109625;1273;22528;-52
2022/07/22 11:26:43;;;;;;;8.30;3.60;;;;;;;30.18;37.98;100396.37;109627;1273;22459;-55
2022/07/22 11:29:20;;;;;;;7.50;2.60;;;;;;;30.23;37.92;100397.70;109621;1273;22453;-54
2022/07/22 11:31:51;;;;;;;8.00;3.20;;;;;;;30.24;37.66;100392.90;109673;1273;22393;-55
2022/07/22 11:34:24;;;;;;;7.80;3.10;;;;;;;30.25;37.85;100383.72;109632;1273;22262;-56
2022/07/22 11:36:57;;;;;;;7.20;3.00;;;;;;;30.31;37.81;100386.89;109628;1273;22423;-55
2022/07/22 11:39:31;;;;;;;8.60;2.30;;;;;;;30.37;37.83;100385.45;109642;1273;22540;-54